createdAt,value
2018-12-10T00:02:12.826Z,0.20
2018-12-10T00:07:07.494Z,0.40
2018-12-10T00:12:02.173Z,0.20
2018-12-10T00:16:56.814Z,0.33
2018-12-10T00:21:51.697Z,0.50
2018-12-10T00:26:46.327Z,0.53
2018-12-10T00:31:41.003Z,0.50
2018-12-10T00:36:35.759Z,0.30
2018-12-10T00:41:30.511Z,0.80
2018-12-10T00:46:25.270Z,0.70
2018-12-10T00:51:20.126Z,0.90
2018-12-10T00:56:14.739Z,0.80
2018-12-10T01:01:09.396Z,0.87
2018-12-10T01:06:04.228Z,0.60
2018-12-10T01:10:59.079Z,0.53
2018-12-10T01:15:53.779Z,1.00
2018-12-10T01:20:48.412Z,0.83
2018-12-10T01:25:43.030Z,0.70
2018-12-10T01:30:37.659Z,0.80
2018-12-10T01:35:32.797Z,0.90
2018-12-10T01:40:27.483Z,0.90
2018-12-10T01:45:22.303Z,0.70
2018-12-10T01:50:17.017Z,0.60
2018-12-10T01:55:11.636Z,0.60
2018-12-10T02:00:07.377Z,0.90
2018-12-10T02:05:01.987Z,0.77
2018-12-10T02:09:56.812Z,0.90
2018-12-10T02:14:51.550Z,0.90
2018-12-10T02:19:46.290Z,0.80
2018-12-10T02:24:41.149Z,0.80
2018-12-10T02:29:35.781Z,1.00
2018-12-10T02:34:30.642Z,0.73
2018-12-10T02:39:25.224Z,0.77
2018-12-10T02:44:19.857Z,0.80
2018-12-10T02:49:14.523Z,1.00
2018-12-10T02:54:09.118Z,0.70
2018-12-10T02:59:03.871Z,0.80
2018-12-10T03:03:58.493Z,1.03
2018-12-10T03:08:53.279Z,0.80
2018-12-10T03:13:47.934Z,0.97
2018-12-10T03:18:42.679Z,1.20
2018-12-10T03:23:37.429Z,1.20
2018-12-10T03:28:32.258Z,1.23
2018-12-10T03:33:26.957Z,1.10
2018-12-10T03:38:21.682Z,1.43
2018-12-10T03:43:16.307Z,1.27
2018-12-10T03:48:10.913Z,1.53
2018-12-10T03:53:05.531Z,1.43
2018-12-10T03:58:00.209Z,1.40
2018-12-10T04:02:54.809Z,1.37
2018-12-10T04:07:49.501Z,1.60
2018-12-10T04:12:44.083Z,1.60
2018-12-10T04:17:38.724Z,1.20
2018-12-10T04:22:33.306Z,1.50
2018-12-10T04:27:27.875Z,1.23
2018-12-10T04:32:23.107Z,1.53
2018-12-10T04:37:17.735Z,1.53
2018-12-10T04:42:12.401Z,1.47
2018-12-10T04:47:07.136Z,1.70
2018-12-10T04:52:01.751Z,1.60
2018-12-10T04:56:57.281Z,1.47
2018-12-10T05:01:51.970Z,1.20
2018-12-10T05:06:46.723Z,1.20
2018-12-10T05:11:41.463Z,1.20
2018-12-10T05:16:36.168Z,1.40
2018-12-10T05:21:30.852Z,1.60
2018-12-10T05:26:25.462Z,1.03
2018-12-10T05:31:20.091Z,1.23
2018-12-10T05:36:14.820Z,1.13
2018-12-10T05:41:09.479Z,1.50
2018-12-10T05:46:04.227Z,1.27
2018-12-10T05:50:58.862Z,1.37
2018-12-10T05:55:53.646Z,1.37
2018-12-10T06:00:48.284Z,1.80
2018-12-10T06:05:49.578Z,1.53
2018-12-10T06:10:44.360Z,1.87
2018-12-10T06:15:39.010Z,1.87
2018-12-10T06:20:33.720Z,1.90
2018-12-10T06:25:28.451Z,1.77
2018-12-10T06:30:23.226Z,1.67
2018-12-10T06:40:38.738Z,1.43
2018-12-10T06:45:33.395Z,1.73
2018-12-10T06:50:28.064Z,1.67
2018-12-10T06:55:22.704Z,1.40
2018-12-10T07:00:17.319Z,1.80
2018-12-10T07:05:11.981Z,1.60
2018-12-10T07:10:08.481Z,1.50
2018-12-10T07:15:03.135Z,1.70
2018-12-10T07:19:57.738Z,1.30
2018-12-10T07:24:52.382Z,1.50
2018-12-10T07:29:47.046Z,1.40
2018-12-10T07:34:41.728Z,1.40
2018-12-10T07:39:36.322Z,1.30
2018-12-10T07:44:30.965Z,1.37
2018-12-10T07:49:25.580Z,1.27
2018-12-10T07:54:20.212Z,1.20
2018-12-10T07:59:14.859Z,1.30
2018-12-10T08:04:09.530Z,1.27
2018-12-10T08:09:05.630Z,1.20
2018-12-10T08:14:00.259Z,1.30
2018-12-10T08:18:54.996Z,1.10
2018-12-10T08:23:49.692Z,1.30
2018-12-10T08:28:44.435Z,1.30
2018-12-10T08:33:39.103Z,1.10
2018-12-10T08:38:33.720Z,1.40
2018-12-10T08:43:28.416Z,1.30
2018-12-10T08:48:23.102Z,1.53
2018-12-10T08:53:17.717Z,1.40
2018-12-10T08:58:12.375Z,1.47
2018-12-10T09:03:07.099Z,1.40
2018-12-10T09:08:01.787Z,1.40
2018-12-10T09:12:56.625Z,1.60
2018-12-10T09:17:54.765Z,1.30
2018-12-10T09:22:54.475Z,1.20
2018-12-10T09:27:49.118Z,1.23
2018-12-10T09:32:43.984Z,1.40
2018-12-10T09:37:38.575Z,1.13
2018-12-10T09:42:33.435Z,1.40
2018-12-10T09:47:28.101Z,1.30
2018-12-10T09:52:22.779Z,1.40
2018-12-10T09:57:17.438Z,1.53
2018-12-10T10:02:12.496Z,1.33
2018-12-10T10:07:07.382Z,1.80
2018-12-10T10:12:02.039Z,1.90
2018-12-10T10:16:56.767Z,2.30
2018-12-10T10:21:51.407Z,2.10
2018-12-10T10:26:46.067Z,1.90
2018-12-10T10:31:40.682Z,2.00
2018-12-10T10:36:35.369Z,2.10
2018-12-10T10:41:31.390Z,1.90
2018-12-10T10:46:26.496Z,1.57
2018-12-10T10:51:21.152Z,1.60
2018-12-10T10:56:15.745Z,1.37
2018-12-10T11:01:15.667Z,1.73
2018-12-10T11:06:10.530Z,1.30
2018-12-10T11:11:05.360Z,1.57
2018-12-10T11:16:00.146Z,1.43
2018-12-10T11:20:54.753Z,1.10
2018-12-10T11:25:49.357Z,1.23
2018-12-10T11:30:44.010Z,1.03
2018-12-10T11:35:38.648Z,1.50
2018-12-10T11:40:33.312Z,1.20
2018-12-10T11:45:28.253Z,1.70
2018-12-10T11:50:23.002Z,1.77
2018-12-10T11:55:17.820Z,1.90
2018-12-10T12:00:12.699Z,1.90
2018-12-10T12:05:07.856Z,1.70
2018-12-10T12:10:02.608Z,2.10
2018-12-10T12:14:57.485Z,1.80
2018-12-10T12:19:52.126Z,1.90
2018-12-10T12:24:46.767Z,2.10
2018-12-10T12:29:41.357Z,1.70
2018-12-10T12:34:35.978Z,1.80
2018-12-10T12:39:30.712Z,1.60
2018-12-10T12:44:28.410Z,1.27
2018-12-10T12:49:23.048Z,1.40
2018-12-10T12:54:18.040Z,1.50
2018-12-10T12:59:12.720Z,1.60
2018-12-10T13:04:07.502Z,1.60
2018-12-10T13:09:02.151Z,1.70
2018-12-10T13:13:56.776Z,1.57
2018-12-10T13:18:51.432Z,2.20
2018-12-10T13:23:46.032Z,2.87
2018-12-10T13:28:40.638Z,3.10
2018-12-10T13:33:35.287Z,2.10
2018-12-10T13:38:29.893Z,2.60
2018-12-10T13:43:24.507Z,2.40
2018-12-10T13:48:19.099Z,2.20
2018-12-10T13:53:13.699Z,2.40
2018-12-10T13:58:14.793Z,1.93
2018-12-10T14:03:09.565Z,2.33
2018-12-10T14:08:04.192Z,2.10
2018-12-10T14:12:58.926Z,2.13
2018-12-10T14:17:53.558Z,2.20
2018-12-10T14:22:48.319Z,2.70
2018-12-10T14:27:42.984Z,2.60
2018-12-10T14:32:37.720Z,11.07
2018-12-10T14:37:32.395Z,8.83
2018-12-10T14:42:27.058Z,4.90
2018-12-10T14:47:21.775Z,7.73
2018-12-10T14:52:16.494Z,3.97
2018-12-10T14:57:11.160Z,2.87
2018-12-10T15:02:06.203Z,2.30
2018-12-10T15:07:00.823Z,2.47
2018-12-10T15:11:55.432Z,1.80
2018-12-10T15:16:50.084Z,1.97
2018-12-10T15:26:44.363Z,1.87
2018-12-10T15:31:39.009Z,1.90
2018-12-10T15:36:33.704Z,1.73
2018-12-10T15:41:28.458Z,1.63
2018-12-10T15:46:23.164Z,1.70
2018-12-10T15:51:17.756Z,1.40
2018-12-10T15:56:12.403Z,1.63
2018-12-10T16:01:07.287Z,1.33
2018-12-10T16:06:01.892Z,1.67
2018-12-10T16:10:56.881Z,1.63
2018-12-10T16:15:51.626Z,1.40
2018-12-10T16:20:46.494Z,1.00
2018-12-10T16:25:41.136Z,1.30
2018-12-10T16:30:36.324Z,1.50
2018-12-10T16:35:31.863Z,1.30
2018-12-10T16:40:26.661Z,1.23
2018-12-10T16:45:21.381Z,1.20
2018-12-10T16:50:16.042Z,1.83
2018-12-10T16:55:10.765Z,1.80
2018-12-10T17:00:10.357Z,1.60
2018-12-10T17:05:07.618Z,1.97
2018-12-10T17:10:02.234Z,1.90
2018-12-10T17:14:56.843Z,1.97
2018-12-10T17:19:51.567Z,2.20
2018-12-10T17:24:46.214Z,2.57
2018-12-10T17:29:40.884Z,2.47
2018-12-10T17:34:35.560Z,2.40
2018-12-10T17:39:30.276Z,2.73
2018-12-10T17:44:26.314Z,2.27
2018-12-10T17:49:23.278Z,2.40
2018-12-10T18:05:31.670Z,2.10
2018-12-10T18:21:31.411Z,1.70
2018-12-10T18:37:31.400Z,1.50
2018-12-10T18:42:33.816Z,1.70
2018-12-10T18:47:28.549Z,1.30
2018-12-10T18:52:23.387Z,1.63
2018-12-10T18:57:18.094Z,1.60
2018-12-10T19:02:12.767Z,1.10
2018-12-10T19:07:07.513Z,1.50
2018-12-10T19:12:02.119Z,1.77
2018-12-10T19:16:56.893Z,1.33
2018-12-10T19:21:51.544Z,1.30
2018-12-10T19:26:47.389Z,1.30
2018-12-10T19:31:42.218Z,1.10
2018-12-10T19:36:37.042Z,1.00
2018-12-10T19:41:32.185Z,0.80
2018-12-10T19:46:27.077Z,0.97
2018-12-10T19:51:21.888Z,0.80
2018-12-10T19:56:16.733Z,1.53
2018-12-10T20:01:11.505Z,1.40
2018-12-10T20:06:11.415Z,1.50
2018-12-10T20:11:06.296Z,1.80
2018-12-10T20:16:01.304Z,1.57
2018-12-10T20:20:56.237Z,1.30
2018-12-10T20:25:50.969Z,1.50
2018-12-10T20:30:45.740Z,1.20
2018-12-10T20:35:40.400Z,1.13
2018-12-10T20:40:35.225Z,1.03
2018-12-10T20:45:29.973Z,1.20
2018-12-10T20:50:24.706Z,1.13
2018-12-10T20:55:19.532Z,1.17
2018-12-10T21:00:24.346Z,1.03
2018-12-10T21:05:35.182Z,1.17
2018-12-10T21:10:30.073Z,1.50
2018-12-10T21:15:25.401Z,1.53
2018-12-10T21:20:20.674Z,1.37
2018-12-10T21:25:15.760Z,1.70
2018-12-10T21:30:11.020Z,2.00
2018-12-10T21:35:06.114Z,1.97
2018-12-10T21:40:00.950Z,2.20
2018-12-10T21:44:56.005Z,2.40
2018-12-10T21:49:50.777Z,1.80
2018-12-10T21:54:45.668Z,1.90
2018-12-10T21:59:40.437Z,2.60
2018-12-10T22:04:35.237Z,2.87
2018-12-10T22:09:34.027Z,2.43
2018-12-10T22:24:54.152Z,1.60
2018-12-10T22:55:52.888Z,1.90
2018-12-10T23:05:54.644Z,2.07
2018-12-10T23:16:33.319Z,2.20
2018-12-10T23:21:34.383Z,2.53
2018-12-10T23:26:36.259Z,2.70
2018-12-10T23:31:35.861Z,2.70
2018-12-10T23:47:30.786Z,2.73
2018-12-10T23:53:39.575Z,2.97
